Time;durP1;ratioP1;P1;durP2;ratioP2;P2;SDS_P1;SDS_P2;PMS_P1;PMS_P2;Temp;Humidity;BMP_temperature;BMP_pressure;BME280_temperature;BME280_humidity;BME280_pressure;Samples;Min_cycle;Max_cycle;Signal;HPM_P1;HPM_P2
2023/03/15 00:01:36;;;;;;;1.63;0.88;;;17.50;58.40;;;;;;5056699;28;20284;-70
2023/03/15 00:04:25;;;;;;;2.40;1.00;;;17.40;57.90;;;;;;5059121;28;20221;-71
2023/03/15 00:07:13;;;;;;;3.22;1.20;;;17.40;58.40;;;;;;5057098;28;20658;-70
2023/03/15 00:10:03;;;;;;;1.83;1.00;;;17.40;58.00;;;;;;5056951;28;20197;-69
2023/03/15 00:12:51;;;;;;;1.60;1.00;;;17.30;58.60;;;;;;5056436;28;20344;-70
2023/03/15 00:15:47;;;;;;;2.20;1.05;;;17.20;58.60;;;;;;5057490;28;20197;-71
2023/03/15 00:18:35;;;;;;;2.83;0.90;;;17.20;60.70;;;;;;5057526;28;20236;-69
2023/03/15 00:21:23;;;;;;;1.20;1.10;;;17.20;60.90;;;;;;5056993;28;20201;-69
2023/03/15 00:24:11;;;;;;;2.15;1.08;;;17.30;60.80;;;;;;5057178;28;20221;-70
2023/03/15 00:27:00;;;;;;;5.75;1.00;;;17.40;61.40;;;;;;5056699;28;20850;-68
2023/03/15 00:29:48;;;;;;;3.70;1.15;;;17.50;60.20;;;;;;5056882;28;20287;-70
2023/03/15 00:32:37;;;;;;;2.88;0.82;;;17.60;60.20;;;;;;5056079;28;20258;-70
2023/03/15 00:35:25;;;;;;;2.83;1.27;;;17.70;59.70;;;;;;5054313;28;20194;-70
2023/03/15 00:38:13;;;;;;;4.38;1.23;;;17.70;59.70;;;;;;5056326;28;20205;-70
2023/03/15 00:41:05;;;;;;;3.55;1.30;;;17.70;59.70;;;;;;5054469;28;20212;-74
2023/03/15 00:43:53;;;;;;;1.95;0.85;;;17.70;59.50;;;;;;5055965;28;20312;-70
2023/03/15 00:46:41;;;;;;;4.35;1.30;;;17.80;59.10;;;;;;5054335;28;20228;-70
2023/03/15 00:49:32;;;;;;;2.85;0.90;;;17.80;59.20;;;;;;5055688;28;20212;-72
2023/03/15 00:52:20;;;;;;;1.38;0.90;;;17.90;75.40;;;;;;5055482;28;20233;-73
2023/03/15 00:55:12;;;;;;;3.67;1.00;;;17.90;58.10;;;;;;5054912;28;20201;-72
2023/03/15 00:58:01;;;;;;;4.60;1.27;;;17.70;57.10;;;;;;5055172;28;20201;-75
2023/03/15 01:00:50;;;;;;;2.65;0.90;;;17.90;57.20;;;;;;5055692;28;20201;-72
2023/03/15 01:03:40;;;;;;;1.23;0.90;;;17.90;57.20;;;;;;5055112;28;20221;-71
2023/03/15 01:06:30;;;;;;;4.07;1.10;;;17.80;57.50;;;;;;5054203;28;20343;-70
2023/03/15 01:09:18;;;;;;;3.67;1.02;;;17.70;57.00;;;;;;5055888;28;20229;-71
2023/03/15 01:12:06;;;;;;;2.55;1.10;;;17.60;68.30;;;;;;5053852;28;20197;-71
2023/03/15 01:14:54;;;;;;;1.75;1.15;;;17.60;56.90;;;;;;5055081;28;20202;-70
2023/03/15 01:17:42;;;;;;;1.88;0.90;;;17.60;57.20;;;;;;5055362;28;20552;-71
2023/03/15 01:20:30;;;;;;;2.50;1.10;;;17.50;57.50;;;;;;5053790;28;20205;-70
2023/03/15 01:23:20;;;;;;;3.92;1.63;;;17.40;57.20;;;;;;5055267;28;20358;-70
2023/03/15 01:26:11;;;;;;;3.38;0.80;;;17.40;57.80;;;;;;5055690;28;20221;-70
2023/03/15 01:28:59;;;;;;;1.90;1.30;;;17.30;57.30;;;;;;5055701;28;20674;-70
2023/03/15 01:31:47;;;;;;;3.10;1.15;;;17.30;57.00;;;;;;5055012;28;20757;-70
2023/03/15 01:34:36;;;;;;;2.03;1.10;;;17.20;58.20;;;;;;5054224;28;20206;-69
2023/03/15 01:37:24;;;;;;;9.00;1.83;;;17.20;58.10;;;;;;5056252;28;20197;-69
2023/03/15 01:40:14;;;;;;;2.40;1.00;;;17.10;59.80;;;;;;5055457;28;20203;-69
2023/03/15 01:43:17;;;;;;;2.88;1.00;;;17.20;60.10;;;;;;5055279;28;20271;-69
2023/03/15 01:46:23;;;;;;;3.67;1.15;;;17.30;60.20;;;;;;5054900;28;20669;-69
2023/03/15 01:49:15;;;;;;;3.92;1.00;;;17.40;60.00;;;;;;5055051;28;20247;-68
2023/03/15 01:52:06;;;;;;;1.60;0.85;;;17.60;59.80;;;;;;5053959;28;20197;-70
2023/03/15 01:54:58;;;;;;;2.75;1.20;;;17.70;59.50;;;;;;5054981;28;20744;-69
2023/03/15 01:57:54;;;;;;;1.65;1.00;;;17.70;59.40;;;;;;5055285;28;20233;-69
2023/03/15 02:00:43;;;;;;;2.95;1.00;;;17.80;59.30;;;;;;5054838;28;20259;-70
2023/03/15 02:03:35;;;;;;;1.75;0.85;;;17.80;58.70;;;;;;5054198;28;20229;-69
2023/03/15 02:06:24;;;;;;;3.55;1.23;;;17.80;58.20;;;;;;5054993;28;20205;-70
2023/03/15 02:09:15;;;;;;;1.30;0.90;;;17.80;58.10;;;;;;5054568;28;20792;-71
2023/03/15 02:12:05;;;;;;;4.22;1.05;;;17.90;57.90;;;;;;5067113;22;20244;-68
2023/03/15 02:14:54;;;;;;;2.25;1.33;;;17.90;58.00;;;;;;5035678;28;20198;-68
2023/03/15 02:17:44;;;;;;;1.30;1.10;;;17.90;58.60;;;;;;5032280;28;20204;-68
2023/03/15 02:20:40;;;;;;;2.47;1.13;;;17.80;57.50;;;;;;5032272;28;20218;-68
2023/03/15 02:23:30;;;;;;;1.75;1.00;;;17.90;57.40;;;;;;5030677;28;20210;-68
2023/03/15 02:26:25;;;;;;;1.23;1.00;;;17.90;56.60;;;;;;5042113;28;20216;-68
2023/03/15 02:33:26;;;;;;;3.08;1.33;;;17.90;56.40;;;;;;5031783;28;20193;-68
2023/03/15 02:36:18;;;;;;;2.13;0.90;;;17.80;57.10;;;;;;5032339;28;20332;-68
2023/03/15 02:39:17;;;;;;;2.78;1.23;;;17.70;56.90;;;;;;5032505;28;20246;-68
2023/03/15 02:42:06;;;;;;;4.40;0.95;;;17.60;57.10;;;;;;5032770;28;20709;-68
2023/03/15 02:44:56;;;;;;;3.58;1.08;;;17.50;57.30;;;;;;5032021;28;20889;-68
2023/03/15 02:47:46;;;;;;;1.55;1.00;;;17.50;57.10;;;;;;5031744;28;20312;-68
2023/03/15 02:50:35;;;;;;;2.70;1.25;;;17.40;57.30;;;;;;5032414;28;20299;-68
2023/03/15 02:53:23;;;;;;;2.03;1.10;;;16.90;57.10;;;;;;5031539;28;20205;-68
2023/03/15 02:56:13;;;;;;;2.25;0.90;;;17.00;57.60;;;;;;5032211;28;20208;-68
2023/03/15 02:59:01;;;;;;;2.45;1.02;;;17.20;57.10;;;;;;5031829;28;20682;-68
2023/03/15 03:01:49;;;;;;;2.78;1.15;;;17.80;58.20;;;;;;5032445;28;20307;-68
2023/03/15 03:04:37;;;;;;;4.47;1.27;;;17.00;58.60;;;;;;5032065;28;20280;-68
2023/03/15 03:07:26;;;;;;;1.85;1.00;;;17.00;59.00;;;;;;5032708;28;20293;-68
2023/03/15 03:10:16;;;;;;;3.47;1.02;;;17.10;59.40;;;;;;5033058;28;20270;-68
2023/03/15 03:13:04;;;;;;;2.03;1.10;;;17.20;59.40;;;;;;5031938;28;20281;-68
2023/03/15 03:15:57;;;;;;;1.77;1.00;;;17.30;59.10;;;;;;5032776;28;20676;-68
2023/03/15 03:18:45;;;;;;;3.58;0.90;;;17.10;58.90;;;;;;5031960;28;20580;-68
2023/03/15 03:21:33;;;;;;;2.50;1.20;;;17.50;58.90;;;;;;5032141;28;20229;-68
2023/03/15 03:24:24;;;;;;;2.33;1.20;;;17.60;58.70;;;;;;5031883;28;20281;-68
2023/03/15 03:27:13;;;;;;;1.20;1.10;;;17.80;58.70;;;;;;5031730;28;20222;-68
2023/03/15 03:30:01;;;;;;;2.15;1.42;;;17.50;70.00;;;;;;5031284;28;20702;-68
2023/03/15 03:32:50;;;;;;;1.00;0.75;;;17.70;58.40;;;;;;5031446;28;20247;-68
2023/03/15 03:35:38;;;;;;;2.85;1.00;;;17.70;58.10;;;;;;5032262;28;20202;-69
2023/03/15 03:38:26;;;;;;;2.33;1.20;;;17.60;57.40;;;;;;5031887;28;20202;-68
2023/03/15 03:41:15;;;;;;;3.53;1.30;;;17.70;57.30;;;;;;5032975;28;20702;-68
2023/03/15 03:44:04;;;;;;;2.08;1.13;;;17.20;57.00;;;;;;5032472;28;20234;-68
2023/03/15 03:46:52;;;;;;;2.53;1.08;;;17.70;56.50;;;;;;5031463;28;20206;-68
2023/03/15 03:49:40;;;;;;;4.53;1.30;;;17.70;56.80;;;;;;5032851;28;20275;-68
2023/03/15 03:52:28;;;;;;;3.00;0.90;;;17.80;56.70;;;;;;5032159;28;20624;-68
2023/03/15 03:55:16;;;;;;;2.80;1.10;;;17.10;56.60;;;;;;5032782;28;20206;-68
2023/03/15 03:58:06;;;;;;;2.95;1.00;;;17.50;57.10;;;;;;5032867;28;20225;-68
2023/03/15 04:00:54;;;;;;;3.33;1.30;;;17.40;56.50;;;;;;5031428;28;20222;-68
2023/03/15 04:03:42;;;;;;;1.75;1.23;;;16.80;56.10;;;;;;5031551;28;20198;-68
2023/03/15 04:06:30;;;;;;;3.45;1.25;;;17.40;57.20;;;;;;5032240;28;20198;-68
2023/03/15 04:09:18;;;;;;;3.10;0.85;;;17.40;57.40;;;;;;5032539;28;20309;-68
2023/03/15 04:12:06;;;;;;;2.55;1.20;;;17.20;57.40;;;;;;5031148;28;20428;-68
2023/03/15 04:14:55;;;;;;;4.43;1.30;;;17.10;57.00;;;;;;5031503;28;20202;-68
2023/03/15 04:17:43;;;;;;;2.17;0.88;;;17.60;57.50;;;;;;5032878;28;20686;-68
2023/03/15 04:20:33;;;;;;;2.45;0.95;;;17.10;58.40;;;;;;5031727;28;20305;-68
2023/03/15 04:23:22;;;;;;;3.25;0.90;;;16.80;58.40;;;;;;5031204;28;20299;-68
2023/03/15 04:26:10;;;;;;;4.35;1.60;;;17.00;58.60;;;;;;5032495;28;20288;-68
2023/03/15 04:28:59;;;;;;;1.00;0.90;;;17.10;58.80;;;;;;5051731;28;20259;-68
2023/03/15 04:31:48;;;;;;;2.30;1.02;;;17.20;59.10;;;;;;5051335;28;20607;-68
2023/03/15 04:34:37;;;;;;;2.53;1.08;;;17.20;58.80;;;;;;5051768;28;20220;-68
2023/03/15 04:37:25;;;;;;;3.70;1.10;;;17.30;58.60;;;;;;5051472;28;20262;-68
2023/03/15 04:40:14;;;;;;;5.80;1.02;;;17.30;76.10;;;;;;5051278;28;20205;-68
2023/03/15 04:43:03;;;;;;;3.67;1.67;;;17.40;58.40;;;;;;5054175;28;20209;-68
2023/03/15 04:45:51;;;;;;;2.28;1.00;;;17.60;58.10;;;;;;5054122;28;20328;-68
2023/03/15 04:48:41;;;;;;;3.63;1.30;;;17.40;58.00;;;;;;5055533;28;20296;-68
2023/03/15 04:51:29;;;;;;;3.22;1.10;;;17.20;57.60;;;;;;5054189;28;20260;-68
2023/03/15 04:54:17;;;;;;;4.43;1.50;;;17.40;57.60;;;;;;5054043;28;20280;-68
2023/03/15 04:57:05;;;;;;;1.98;0.95;;;16.90;56.80;;;;;;5054272;28;20243;-68
2023/03/15 04:59:53;;;;;;;3.65;1.10;;;17.40;56.40;;;;;;5054113;28;20280;-68
2023/03/15 05:02:41;;;;;;;3.78;1.10;;;17.50;57.00;;;;;;5053841;28;20663;-68
2023/03/15 05:05:33;;;;;;;1.65;1.10;;;17.40;56.40;;;;;;5054904;28;20295;-68
2023/03/15 05:08:21;;;;;;;2.35;1.20;;;17.40;56.50;;;;;;5054844;28;20347;-68
2023/03/15 05:11:09;;;;;;;3.10;1.05;;;17.30;56.20;;;;;;5053554;28;20879;-69
2023/03/15 05:13:57;;;;;;;2.72;2.08;;;17.30;56.20;;;;;;5053354;28;20238;-68
2023/03/15 05:16:47;;;;;;;4.00;1.73;;;17.20;56.20;;;;;;5054486;28;20234;-68
2023/03/15 05:19:35;;;;;;;6.57;3.15;;;17.20;57.20;;;;;;5053691;28;20693;-68
2023/03/15 05:22:25;;;;;;;3.30;1.73;;;17.10;56.50;;;;;;5053301;28;20704;-68
2023/03/15 05:25:14;;;;;;;1.67;1.10;;;17.10;56.40;;;;;;5053590;28;20347;-68
2023/03/15 05:28:03;;;;;;;3.72;1.55;;;17.00;57.10;;;;;;5053149;28;20677;-68
2023/03/15 05:30:52;;;;;;;4.15;1.40;;;16.90;57.40;;;;;;5053556;28;20228;-68
2023/03/15 05:33:45;;;;;;;3.83;1.15;;;16.90;58.60;;;;;;5053883;28;20280;-68
2023/03/15 05:36:34;;;;;;;1.75;1.02;;;17.00;58.60;;;;;;5054416;28;20770;-68
2023/03/15 05:39:23;;;;;;;4.35;1.88;;;17.10;58.70;;;;;;5052460;28;20252;-68
2023/03/15 05:42:12;;;;;;;5.35;2.75;;;17.20;58.70;;;;;;5053524;28;20609;-68
2023/03/15 05:45:00;;;;;;;2.30;1.30;;;17.40;58.50;;;;;;5053835;28;20200;-68
2023/03/15 05:47:48;;;;;;;3.97;1.70;;;17.50;58.50;;;;;;5053997;28;20197;-68
2023/03/15 05:50:36;;;;;;;3.17;1.42;;;17.50;58.00;;;;;;5053737;28;20308;-69
2023/03/15 05:53:24;;;;;;;5.15;1.83;;;17.50;57.60;;;;;;5052906;28;20252;-68
2023/03/15 05:56:13;;;;;;;3.33;1.52;;;17.50;57.50;;;;;;5054268;28;20255;-68
2023/03/15 05:59:03;;;;;;;2.90;1.70;;;17.50;57.50;;;;;;5053689;28;20200;-68
2023/03/15 06:01:51;;;;;;;2.10;1.38;;;17.50;57.50;;;;;;5054364;28;20695;-68
2023/03/15 06:04:39;;;;;;;4.28;2.35;;;17.60;57.50;;;;;;5054093;28;20686;-68
2023/03/15 06:07:27;;;;;;;3.33;1.50;;;17.60;57.20;;;;;;5054292;28;20284;-68
2023/03/15 06:10:15;;;;;;;2.78;1.50;;;17.60;57.00;;;;;;5054383;28;20226;-68
2023/03/15 06:13:05;;;;;;;3.42;1.30;;;17.60;57.60;;;;;;5054288;28;20198;-68
2023/03/15 06:15:53;;;;;;;4.63;2.85;;;17.60;57.50;;;;;;5054385;28;20205;-68
2023/03/15 06:18:41;;;;;;;4.70;1.60;;;17.70;56.60;;;;;;5053902;28;20193;-68
2023/03/15 06:21:30;;;;;;;4.55;1.88;;;17.80;57.10;;;;;;5053585;28;20217;-68
2023/03/15 06:24:18;;;;;;;13.07;7.75;;;17.50;56.90;;;;;;5054022;28;20288;-68
2023/03/15 06:27:06;;;;;;;9.82;6.60;;;17.60;57.00;;;;;;5052790;28;20275;-68
2023/03/15 06:29:56;;;;;;;11.65;6.25;;;17.90;57.10;;;;;;5053513;28;20217;-68
2023/03/15 06:32:44;;;;;;;5.20;2.97;;;17.40;56.70;;;;;;5054784;28;20290;-68
2023/03/15 06:35:32;;;;;;;7.45;2.22;;;17.40;56.90;;;;;;5054784;28;20209;-68
2023/03/15 06:38:20;;;;;;;5.93;2.03;;;17.30;57.10;;;;;;5065109;28;20212;-69
2023/03/15 06:41:08;;;;;;;6.95;2.10;;;17.20;56.70;;;;;;5045150;28;20261;-68
2023/03/15 06:43:57;;;;;;;6.22;1.63;;;17.50;57.00;;;;;;5048563;28;20666;-68
2023/03/15 06:46:47;;;;;;;5.70;1.70;;;16.90;56.90;;;;;;5052577;28;20208;-68
2023/03/15 06:49:35;;;;;;;4.25;1.55;;;17.10;57.50;;;;;;5053099;28;20300;-68
2023/03/15 06:52:23;;;;;;;8.52;3.13;;;16.70;57.90;;;;;;5031936;28;20206;-68
2023/03/15 06:55:16;;;;;;;39.53;23.50;;;17.00;58.50;;;;;;5036997;28;20339;-68
2023/03/15 06:58:04;;;;;;;35.75;17.75;;;17.10;58.60;;;;;;5029135;28;20197;-69
2023/03/15 07:00:52;;;;;;;15.23;10.15;;;17.40;58.80;;;;;;5025153;28;20224;-68
2023/03/15 07:03:41;;;;;;;10.15;5.13;;;17.30;58.70;;;;;;5030208;28;20655;-68
2023/03/15 07:06:30;;;;;;;6.53;2.78;;;17.40;58.40;;;;;;5034371;28;20263;-68
2023/03/15 07:09:18;;;;;;;5.68;1.83;;;17.50;58.70;;;;;;5034681;28;20267;-69
2023/03/15 07:12:07;;;;;;;69.75;10.35;;;17.50;57.90;;;;;;5035132;28;20364;-68
2023/03/15 07:14:55;;;;;;;27.77;4.13;;;17.60;58.10;;;;;;5036324;28;20312;-68
2023/03/15 07:17:43;;;;;;;6.47;1.92;;;17.60;58.40;;;;;;5031131;28;20244;-69
2023/03/15 07:20:33;;;;;;;4.10;2.17;;;17.60;58.00;;;;;;5026441;28;20226;-69
2023/03/15 07:23:24;;;;;;;13.02;2.00;;;17.70;58.10;;;;;;5043179;28;20333;-69
2023/03/15 07:26:13;;;;;;;10.95;1.85;;;17.70;57.70;;;;;;5043573;28;20295;-69
2023/03/15 07:29:01;;;;;;;5.85;1.70;;;17.70;57.40;;;;;;5011332;28;20285;-69
2023/03/15 07:31:49;;;;;;;4.13;1.40;;;17.80;56.50;;;;;;5018181;28;20227;-69
2023/03/15 07:34:37;;;;;;;6.40;1.40;;;17.80;57.40;;;;;;5012256;28;20203;-69
2023/03/15 07:37:27;;;;;;;6.70;3.20;;;17.80;56.90;;;;;;5019509;28;20203;-69
2023/03/15 07:40:15;;;;;;;12.13;5.18;;;17.80;57.10;;;;;;5012190;28;20345;-69
2023/03/15 07:43:03;;;;;;;17.58;10.30;;;17.70;57.00;;;;;;5012716;28;20203;-69
2023/03/15 07:45:51;;;;;;;15.55;6.68;;;17.80;56.20;;;;;;5013950;28;20198;-69
2023/03/15 07:48:39;;;;;;;11.55;4.55;;;17.30;56.60;;;;;;5021440;28;20194;-69
2023/03/15 07:51:28;;;;;;;4.75;2.42;;;17.70;56.90;;;;;;5034571;28;20233;-68
2023/03/15 07:54:18;;;;;;;3.22;1.50;;;17.70;57.10;;;;;;5047890;28;20225;-69
2023/03/15 07:57:06;;;;;;;5.38;1.80;;;17.60;57.10;;;;;;5038534;28;20193;-69
2023/03/15 07:59:54;;;;;;;4.88;1.70;;;17.50;57.40;;;;;;5045339;28;20620;-69
2023/03/15 08:02:43;;;;;;;3.08;1.70;;;17.50;57.70;;;;;;5027561;28;20257;-69
2023/03/15 08:05:31;;;;;;;4.72;1.65;;;17.20;57.20;;;;;;5013117;28;20206;-69
2023/03/15 08:08:19;;;;;;;3.97;1.42;;;16.90;56.90;;;;;;5012842;28;20199;-68
2023/03/15 08:11:09;;;;;;;5.68;2.35;;;17.40;57.50;;;;;;5012483;28;20233;-68
2023/03/15 08:13:57;;;;;;;2.13;1.45;;;17.30;57.70;;;;;;5011338;28;20194;-69
2023/03/15 08:16:45;;;;;;;3.45;1.23;;;17.20;57.90;;;;;;5014344;28;20239;-68
2023/03/15 08:19:33;;;;;;;3.92;0.98;;;17.20;58.60;;;;;;5024041;28;20681;-69
2023/03/15 08:22:22;;;;;;;4.05;1.35;;;17.30;59.30;;;;;;5034235;28;20565;-68
2023/03/15 08:25:11;;;;;;;2.55;1.60;;;17.30;59.10;;;;;;5043929;28;20263;-69
2023/03/15 08:28:01;;;;;;;3.47;1.40;;;17.50;59.10;;;;;;5030008;28;20277;-68
2023/03/15 08:30:49;;;;;;;4.00;1.85;;;17.70;59.10;;;;;;5015930;28;20633;-69
2023/03/15 08:33:37;;;;;;;2.92;1.50;;;17.30;58.90;;;;;;5027072;28;20225;-69
2023/03/15 08:36:25;;;;;;;3.25;1.40;;;18.20;59.00;;;;;;5043734;28;20251;-69
2023/03/15 08:39:14;;;;;;;4.40;1.67;;;18.20;59.10;;;;;;5033894;28;20206;-69
2023/03/15 08:42:02;;;;;;;4.10;1.55;;;17.90;58.40;;;;;;5030268;28;20250;-70
2023/03/15 08:44:51;;;;;;;2.50;1.40;;;17.90;58.90;;;;;;5027840;28;20198;-70
2023/03/15 08:47:39;;;;;;;1.48;1.38;;;18.00;57.90;;;;;;5029566;28;20191;-71
2023/03/15 08:50:30;;;;;;;8.80;1.77;;;18.00;58.50;;;;;;5036389;28;20226;-71
2023/03/15 08:53:18;;;;;;;3.63;1.80;;;17.90;58.30;;;;;;5055575;28;20280;-71
2023/03/15 08:56:06;;;;;;;3.20;1.85;;;18.10;58.00;;;;;;5046036;28;20271;-71
2023/03/15 08:58:55;;;;;;;3.08;1.38;;;18.10;57.10;;;;;;5027253;28;20206;-70
2023/03/15 09:01:44;;;;;;;2.13;1.48;;;18.40;56.80;;;;;;5033724;28;20221;-71
2023/03/15 09:04:33;;;;;;;2.78;1.65;;;18.10;57.10;;;;;;5026460;28;20206;-71
2023/03/15 09:07:21;;;;;;;4.80;2.17;;;18.10;56.60;;;;;;5030065;28;20640;-71
2023/03/15 09:10:13;;;;;;;4.35;1.77;;;18.20;72.80;;;;;;5027711;28;20692;-71
2023/03/15 09:13:01;;;;;;;1.52;1.38;;;18.10;56.90;;;;;;5021288;28;20629;-71
2023/03/15 09:15:50;;;;;;;2.85;1.45;;;18.00;58.90;;;;;;5034418;28;20198;-70
2023/03/15 09:18:42;;;;;;;5.03;2.20;;;17.90;59.10;;;;;;5019636;28;20617;-71
2023/03/15 09:21:30;;;;;;;3.15;1.80;;;18.00;58.80;;;;;;5034858;28;20221;-71
2023/03/15 09:24:18;;;;;;;5.40;1.85;;;18.10;58.80;;;;;;5052101;28;20629;-72
2023/03/15 09:27:07;;;;;;;8.15;2.55;;;18.20;58.70;;;;;;5029176;28;20301;-71
2023/03/15 09:29:55;;;;;;;3.08;1.45;;;18.40;58.60;;;;;;5022539;28;20693;-71
2023/03/15 09:32:44;;;;;;;5.65;2.15;;;17.90;58.00;;;;;;5026312;28;20202;-71
2023/03/15 09:35:34;;;;;;;1.55;1.30;;;18.50;57.80;;;;;;5032814;28;20270;-71
2023/03/15 09:38:22;;;;;;;4.85;1.60;;;18.70;57.70;;;;;;5015122;28;20570;-72
2023/03/15 09:41:16;;;;;;;1.40;1.30;;;18.70;58.40;;;;;;5015167;28;20294;-71
2023/03/15 09:44:29;;;;;;;2.25;1.23;;;19.00;57.50;;;;;;5025317;28;20198;-71
2023/03/15 09:47:33;;;;;;;3.80;1.42;;;19.00;57.40;;;;;;5021704;28;20292;-71
2023/03/15 09:50:29;;;;;;;27.88;22.88;;;19.00;57.40;;;;;;5014456;28;20309;-71
2023/03/15 09:53:24;;;;;;;8.70;6.32;;;18.40;56.40;;;;;;5014904;28;20213;-70
2023/03/15 09:56:22;;;;;;;5.35;2.58;;;19.00;57.40;;;;;;5031444;28;20706;-71
2023/03/15 09:59:11;;;;;;;6.90;1.70;;;19.00;56.80;;;;;;5016977;28;20198;-71
2023/03/15 10:02:03;;;;;;;6.22;2.10;;;19.00;56.40;;;;;;5014358;28;20211;-71
2023/03/15 10:04:55;;;;;;;2.55;1.45;;;19.00;56.80;;;;;;5017350;28;20329;-71
2023/03/15 10:07:44;;;;;;;3.58;1.40;;;19.00;55.00;;;;;;5014962;28;20905;-71
2023/03/15 10:10:36;;;;;;;3.08;1.60;;;19.00;55.80;;;;;;5038114;28;20312;-71
2023/03/15 10:13:42;;;;;;;2.53;1.27;;;19.10;55.30;;;;;;5034064;28;20215;-71
2023/03/15 10:16:39;;;;;;;12.65;3.00;;;19.10;55.70;;;;;;5014632;28;20205;-71
2023/03/15 10:19:35;;;;;;;3.13;1.80;;;19.10;55.90;;;;;;5019308;28;20210;-71
2023/03/15 10:22:27;;;;;;;1.85;1.25;;;19.10;55.70;;;;;;5032418;28;20280;-71
2023/03/15 10:25:22;;;;;;;5.13;1.45;;;19.00;56.30;;;;;;5013043;28;20282;-70
2023/03/15 10:28:16;;;;;;;3.40;1.35;;;18.90;58.00;;;;;;5022718;28;20202;-69
2023/03/15 10:31:12;;;;;;;3.67;1.55;;;18.90;57.70;;;;;;5036399;28;20225;-70
2023/03/15 10:34:16;;;;;;;1.58;1.48;;;19.00;58.50;;;;;;5023275;28;20207;-70
2023/03/15 10:37:05;;;;;;;4.15;1.33;;;19.10;57.70;;;;;;5014523;28;20229;-70
2023/03/15 10:39:56;;;;;;;3.83;1.50;;;;;;;;;;5019745;28;20209;-71
2023/03/15 10:42:45;;;;;;;7.65;2.95;;;19.20;57.90;;;;;;5042889;28;20687;-70
2023/03/15 10:45:35;;;;;;;3.72;1.73;;;19.20;57.60;;;;;;5038308;28;20236;-71
2023/03/15 10:48:23;;;;;;;3.70;1.42;;;19.20;57.10;;;;;;5044112;28;20205;-70
2023/03/15 10:51:20;;;;;;;10.32;4.53;;;19.20;56.90;;;;;;5032600;28;20249;-70
2023/03/15 10:54:13;;;;;;;3.83;1.42;;;19.30;57.10;;;;;;5019434;28;20256;-70
2023/03/15 10:57:03;;;;;;;7.30;1.73;;;19.30;56.70;;;;;;5014294;28;20234;-70
2023/03/15 10:59:58;;;;;;;2.80;1.98;;;19.30;57.30;;;;;;5031900;28;20252;-70
2023/03/15 11:02:51;;;;;;;5.38;2.90;;;19.30;56.20;;;;;;5025974;28;20226;-70
2023/03/15 11:05:41;;;;;;;2.70;1.95;;;19.20;55.90;;;;;;5023394;28;20741;-70
2023/03/15 11:08:41;;;;;;;7.43;1.52;;;19.20;55.80;;;;;;5030240;28;20198;-69
2023/03/15 11:11:52;;;;;;;2.80;1.50;;;19.20;54.80;;;;;;5013969;28;20285;-70
2023/03/15 11:14:42;;;;;;;3.25;1.17;;;19.30;55.20;;;;;;5014807;28;20207;-70
2023/03/15 11:17:33;;;;;;;2.65;1.20;;;19.30;54.80;;;;;;5031624;28;20248;-70
2023/03/15 11:20:29;;;;;;;15.13;2.13;;;19.30;54.50;;;;;;5019157;28;20259;-71
2023/03/15 11:23:22;;;;;;;6.30;1.52;;;19.40;54.80;;;;;;5013196;28;20214;-69
2023/03/15 11:26:17;;;;;;;3.88;1.08;;;19.30;56.60;;;;;;5032402;28;20630;-70
2023/03/15 11:29:23;;;;;;;8.45;1.40;;;19.20;56.80;;;;;;5028444;28;20202;-69
2023/03/15 11:32:15;;;;;;;3.90;1.58;;;19.30;58.00;;;;;;5035903;28;20286;-70
2023/03/15 11:35:07;;;;;;;4.50;1.00;;;19.20;57.20;;;;;;5033635;28;20694;-70
2023/03/15 11:38:02;;;;;;;2.22;1.17;;;19.30;57.70;;;;;;5031280;28;20198;-69
2023/03/15 11:41:10;;;;;;;1.48;1.17;;;19.30;58.60;;;;;;5019024;28;20958;-69
2023/03/15 11:44:06;;;;;;;4.63;1.50;;;19.40;58.20;;;;;;5025722;28;20246;-69
2023/03/15 11:47:01;;;;;;;1.50;1.38;;;19.40;57.60;;;;;;5032956;28;20285;-69
2023/03/15 11:49:51;;;;;;;2.22;1.33;;;19.40;57.10;;;;;;5033234;28;20213;-69
2023/03/15 11:52:40;;;;;;;4.45;1.30;;;19.40;57.90;;;;;;5033020;28;20214;-69
2023/03/15 11:55:29;;;;;;;4.50;1.58;;;19.50;57.10;;;;;;5012695;28;20194;-69
2023/03/15 11:58:31;;;;;;;1.92;1.10;;;19.40;56.80;;;;;;5012595;28;20379;-69
2023/03/15 12:01:26;;;;;;;3.58;1.05;;;19.40;56.90;;;;;;5028701;28;20229;-69
2023/03/15 12:04:37;;;;;;;2.90;1.20;;;19.30;56.30;;;;;;5050060;28;20284;-69
2023/03/15 12:07:37;;;;;;;22.17;3.70;;;19.40;57.30;;;;;;5052716;28;20484;-69
2023/03/15 12:10:45;;;;;;;4.57;1.27;;;19.40;55.50;;;;;;5029911;28;20226;-69
2023/03/15 12:13:34;;;;;;;4.07;1.17;;;19.40;55.50;;;;;;5013073;28;20201;-69
2023/03/15 12:16:25;;;;;;;3.38;1.00;;;19.50;55.30;;;;;;5013811;28;20265;-69
2023/03/15 12:19:17;;;;;;;3.08;1.20;;;19.40;54.60;;;;;;5021747;28;20649;-69
2023/03/15 12:22:05;;;;;;;5.75;3.03;;;19.40;53.30;;;;;;5033405;28;20241;-69
2023/03/15 12:24:53;;;;;;;5.28;1.40;;;19.50;53.30;;;;;;5019228;28;20281;-70
2023/03/15 12:27:49;;;;;;;4.60;2.25;;;19.80;56.10;;;;;;5014052;28;20723;-70
2023/03/15 12:30:41;;;;;;;2.05;1.67;;;19.30;56.30;;;;;;5013041;28;20278;-69
2023/03/15 12:33:31;;;;;;;4.47;1.30;;;19.50;58.40;;;;;;5014311;28;20613;-70
2023/03/15 12:36:32;;;;;;;3.85;1.90;;;19.00;57.10;;;;;;5023554;28;20277;-69
2023/03/15 12:39:35;;;;;;;5.18;1.33;;;19.30;57.30;;;;;;5021500;28;20905;-68
2023/03/15 12:43:06;;;;;;;1.80;1.15;;;19.40;57.60;;;;;;5020168;28;20206;-69
2023/03/15 12:45:56;;;;;;;2.00;1.08;;;19.50;57.10;;;;;;5014173;28;20348;-69
2023/03/15 12:49:05;;;;;;;5.18;1.40;;;19.80;56.90;;;;;;5015414;28;20574;-69
2023/03/15 12:51:56;;;;;;;1.38;1.08;;;19.60;57.00;;;;;;5031613;28;20293;-69
2023/03/15 12:54:50;;;;;;;2.72;1.42;;;19.60;56.60;;;;;;5026804;28;20195;-70
2023/03/15 12:57:47;;;;;;;1.15;1.05;;;19.60;56.30;;;;;;5020215;28;20213;-70
2023/03/15 13:00:37;;;;;;;3.80;1.63;;;19.70;56.50;;;;;;5027528;28;20679;-69
2023/03/15 13:03:27;;;;;;;3.60;1.42;;;19.60;54.60;;;;;;5029247;28;20198;-70
2023/03/15 13:06:22;;;;;;;4.88;1.27;;;19.70;56.60;;;;;;5026693;28;20277;-69
2023/03/15 13:09:21;;;;;;;3.38;1.23;;;19.60;52.30;;;;;;5022663;28;20559;-69
2023/03/15 13:12:15;;;;;;;3.92;2.28;;;19.70;53.60;;;;;;5027899;28;20225;-69
2023/03/15 13:15:07;;;;;;;4.53;1.98;;;19.70;52.00;;;;;;5030910;28;20203;-70
2023/03/15 13:17:58;;;;;;;2.17;1.23;;;19.70;51.90;;;;;;5029182;28;20209;-69
2023/03/15 13:20:57;;;;;;;2.35;1.48;;;19.80;51.30;;;;;;5030968;28;20240;-69
2023/03/15 13:23:50;;;;;;;2.08;1.05;;;19.90;51.20;;;;;;5033424;28;20262;-69
2023/03/15 13:26:47;;;;;;;4.25;1.00;;;19.90;51.70;;;;;;5016080;28;20195;-69
2023/03/15 13:29:36;;;;;;;3.05;1.13;;;19.80;50.50;;;;;;5018765;28;20213;-70
2023/03/15 13:32:24;;;;;;;2.22;0.80;;;19.80;52.40;;;;;;5025299;28;20326;-70
2023/03/15 13:35:13;;;;;;;2.53;1.08;;;19.90;53.60;;;;;;5027269;28;20198;-69
2023/03/15 13:38:21;;;;;;;2.50;1.17;;;19.60;54.50;;;;;;5033514;28;20591;-69
2023/03/15 13:41:17;;;;;;;2.25;0.90;;;19.50;56.90;;;;;;5021819;28;20223;-70
2023/03/15 13:44:16;;;;;;;2.15;0.95;;;19.40;55.90;;;;;;5025645;28;20221;-69
2023/03/15 13:47:04;;;;;;;11.27;5.63;;;19.30;56.80;;;;;;5027714;28;21033;-69
2023/03/15 13:49:52;;;;;;;4.15;2.38;;;19.20;56.60;;;;;;5023814;28;20202;-69
2023/03/15 13:52:41;;;;;;;5.00;1.45;;;19.30;56.50;;;;;;5014882;28;20308;-70
2023/03/15 13:55:36;;;;;;;3.38;1.20;;;19.40;55.80;;;;;;5043272;23;20509;-72
2023/03/15 13:58:25;;;;;;;1.45;0.95;;;19.40;55.90;;;;;;5042257;28;20680;-71
2023/03/15 14:01:16;;;;;;;1.95;1.00;;;19.30;56.50;;;;;;5037070;28;20221;-70
2023/03/15 14:04:08;;;;;;;1.45;1.10;;;19.40;55.80;;;;;;5041961;28;20206;-69
2023/03/15 14:07:22;;;;;;;4.70;1.45;;;19.50;56.80;;;;;;5039421;28;20308;-70
2023/03/15 14:10:25;;;;;;;4.97;1.13;;;19.60;56.20;;;;;;5046750;28;20288;-68
2023/03/15 14:13:22;;;;;;;5.28;1.67;;;19.70;56.80;;;;;;5054837;28;20702;-70
2023/03/15 14:16:15;;;;;;;6.43;2.25;;;19.70;56.00;;;;;;5054186;28;20225;-72
2023/03/15 14:19:18;;;;;;;2.25;1.48;;;19.70;55.10;;;;;;5051062;28;20219;-72
2023/03/15 14:22:15;;;;;;;4.53;1.05;;;19.70;55.40;;;;;;5048275;28;20236;-73
2023/03/15 14:25:18;;;;;;;3.15;1.13;;;19.70;52.40;;;;;;5037189;28;20685;-70
2023/03/15 14:28:13;;;;;;;2.78;1.13;;;19.70;54.30;;;;;;5032257;28;20205;-68
2023/03/15 14:31:02;;;;;;;1.55;1.00;;;19.70;54.70;;;;;;5048545;28;20229;-71
2023/03/15 14:33:59;;;;;;;1.15;0.70;;;19.80;52.70;;;;;;5050469;28;20232;-69
2023/03/15 14:36:47;;;;;;;11.02;1.77;;;19.80;52.10;;;;;;5034570;28;20304;-72
2023/03/15 14:39:39;;;;;;;2.75;1.10;;;19.80;52.40;;;;;;5051761;28;20194;-72
2023/03/15 14:42:27;;;;;;;2.75;1.40;;;19.70;53.20;;;;;;5051706;28;20984;-73
2023/03/15 14:45:16;;;;;;;1.80;0.90;;;19.70;72.10;;;;;;5049638;28;20352;-70
2023/03/15 14:48:08;;;;;;;1.40;0.80;;;19.60;56.20;;;;;;5040157;28;20198;-68
2023/03/15 14:50:57;;;;;;;1.83;0.90;;;19.60;56.90;;;;;;5047214;28;20280;-68
2023/03/15 14:53:46;;;;;;;1.98;0.93;;;20.10;57.10;;;;;;5043567;28;20756;-68